Time;durP1;ratioP1;P1;durP2;ratioP2;P2;SDS_P1;SDS_P2;PMS_P1;PMS_P2;Temp;Humidity;BMP_temperature;BMP_pressure;BME280_temperature;BME280_humidity;BME280_pressure;Samples;Min_cycle;Max_cycle;Signal;HPM_P1;HPM_P2
2022/10/19 00:00:49;;;;;;;0.10;0.10;;;;;;;;;;5065061;28;20198;-67
2022/10/19 00:03:16;;;;;;;0.10;0.10;;;;;;;;;;5066326;28;20290;-64
2022/10/19 00:05:43;;;;;;;0.00;0.00;;;;;;;;;;5069328;28;20214;-65
2022/10/19 00:08:11;;;;;;;0.10;0.10;;;;;;;;;;5062341;28;20309;-65
2022/10/19 00:10:40;;;;;;;0.00;0.00;;;;;;;;;;5094293;27;20276;-66
2022/10/19 00:13:07;;;;;;;0.10;0.10;;;;;;;;;;5063810;28;20199;-65
2022/10/19 00:15:40;;;;;;;0.07;0.07;;;;;;;;;;5066413;28;20190;-65
2022/10/19 00:18:07;;;;;;;0.00;0.00;;;;;;;;;;5052855;28;20308;-64
2022/10/19 00:20:35;;;;;;;0.00;0.00;;;;;;;;;;5064485;28;20259;-64
2022/10/19 00:23:02;;;;;;;0.10;0.10;;;;;;;;;;5062609;28;20214;-64
2022/10/19 00:25:30;;;;;;;0.10;0.10;;;;;;;;;;5067896;28;20229;-65
2022/10/19 00:27:57;;;;;;;0.10;0.10;;;;;;;;;;5067927;28;20267;-65
2022/10/19 00:30:25;;;;;;;0.10;0.10;;;;;;;;;;5068363;28;20218;-64
2022/10/19 00:32:53;;;;;;;0.00;0.00;;;;;;;;;;5066481;28;20480;-65
2022/10/19 00:35:21;;;;;;;0.00;0.00;;;;;;;;;;5050428;28;20207;-64
2022/10/19 00:37:48;;;;;;;0.10;0.10;;;;;;;;;;5064552;28;20218;-65
2022/10/19 00:40:16;;;;;;;0.10;0.10;;;;;;;;;;5064530;28;20206;-65
2022/10/19 00:42:43;;;;;;;0.10;0.10;;;;;;;;;;5067734;28;20210;-65
2022/10/19 00:45:14;;;;;;;0.10;0.10;;;;;;;;;;5063273;28;20253;-66
2022/10/19 00:47:43;;;;;;;0.00;0.00;;;;;;;;;;5063941;28;20218;-65
2022/10/19 00:50:16;;;;;;;0.00;0.00;;;;;;;;;;5064056;28;20293;-64
2022/10/19 00:52:43;;;;;;;0.10;0.10;;;;;;;;;;5066666;28;20201;-66
2022/10/19 00:55:11;;;;;;;0.10;0.10;;;;;;;;;;5064655;28;20194;-66
2022/10/19 00:57:39;;;;;;;0.10;0.10;;;;;;;;;;5048613;28;20297;-66
2022/10/19 01:00:08;;;;;;;0.10;0.10;;;;;;;;;;5066987;28;20202;-66
2022/10/19 01:02:35;;;;;;;0.10;0.10;;;;;;;;;;5098427;28;20206;-65
2022/10/19 01:05:02;;;;;;;0.10;0.10;;;;;;;;;;5064223;28;20230;-65
2022/10/19 01:07:31;;;;;;;0.00;0.00;;;;;;;;;;5069196;28;20209;-64
2022/10/19 01:09:59;;;;;;;0.10;0.10;;;;;;;;;;5066321;28;20221;-65
2022/10/19 01:12:45;;;;;;;0.10;0.10;;;;;;;;;;5073372;28;20198;-66
2022/10/19 01:15:17;;;;;;;0.00;0.00;;;;;;;;;;5070759;28;20274;-66
2022/10/19 01:17:50;;;;;;;0.10;0.10;;;;;;;;;;5064215;28;20227;-65
2022/10/19 01:20:32;;;;;;;0.10;0.10;;;;;;;;;;5070952;28;20270;-66
2022/10/19 01:23:13;;;;;;;0.10;0.10;;;;;;;;;;5054972;28;20755;-65
2022/10/19 01:25:50;;;;;;;0.10;0.10;;;;;;;;;;5084092;28;20224;-65
2022/10/19 01:28:20;;;;;;;0.10;0.10;;;;;;;;;;5070952;28;20648;-66
2022/10/19 01:30:51;;;;;;;0.10;0.10;;;;;;;;;;5066045;28;20209;-66
2022/10/19 01:33:25;;;;;;;0.00;0.00;;;;;;;;;;5067284;28;20659;-65
2022/10/19 01:35:58;;;;;;;0.00;0.00;;;;;;;;;;5102263;27;20398;-65
2022/10/19 01:38:29;;;;;;;0.00;0.00;;;;;;;;;;5073507;28;21243;-66
2022/10/19 01:40:58;;;;;;;0.10;0.10;;;;;;;;;;5068811;28;20624;-66
2022/10/19 01:43:29;;;;;;;0.00;0.00;;;;;;;;;;5084694;28;20223;-65
2022/10/19 01:46:00;;;;;;;0.00;0.00;;;;;;;;;;5067509;28;20219;-65
2022/10/19 01:48:29;;;;;;;0.00;0.00;;;;;;;;;;5066415;28;20277;-64
2022/10/19 01:50:59;;;;;;;0.00;0.00;;;;;;;;;;5067086;28;20693;-66
2022/10/19 01:53:28;;;;;;;0.10;0.10;;;;;;;;;;5069350;28;20206;-66
2022/10/19 01:55:56;;;;;;;0.00;0.00;;;;;;;;;;5070125;28;20194;-64
2022/10/19 01:58:28;;;;;;;0.10;0.10;;;;;;;;;;5072832;28;20218;-65
2022/10/19 02:00:57;;;;;;;0.10;0.10;;;;;;;;;;5070672;28;20288;-65
2022/10/19 02:03:26;;;;;;;0.00;0.00;;;;;;;;;;5073634;28;20194;-66
2022/10/19 02:05:54;;;;;;;0.10;0.10;;;;;;;;;;5068170;28;20232;-65
2022/10/19 02:08:25;;;;;;;0.00;0.00;;;;;;;;;;5072301;28;20218;-66
2022/10/19 02:10:53;;;;;;;0.10;0.10;;;;;;;;;;5066774;28;20206;-65
2022/10/19 02:13:21;;;;;;;0.00;0.00;;;;;;;;;;5068766;28;20212;-64
2022/10/19 02:15:51;;;;;;;0.10;0.10;;;;;;;;;;5068958;28;20285;-64
2022/10/19 02:18:20;;;;;;;0.10;0.10;;;;;;;;;;5066583;28;20214;-64
2022/10/19 02:20:49;;;;;;;0.10;0.10;;;;;;;;;;5066254;28;20698;-65
2022/10/19 02:23:18;;;;;;;0.07;0.07;;;;;;;;;;5065496;28;20202;-65
2022/10/19 02:25:45;;;;;;;0.00;0.00;;;;;;;;;;5067130;28;20221;-66
2022/10/19 02:28:13;;;;;;;0.10;0.10;;;;;;;;;;5064761;28;20218;-65
2022/10/19 02:30:41;;;;;;;0.03;0.03;;;;;;;;;;5068505;28;20207;-66
2022/10/19 02:33:11;;;;;;;0.00;0.00;;;;;;;;;;5070432;28;20198;-68
2022/10/19 02:35:38;;;;;;;0.00;0.00;;;;;;;;;;5082105;28;20319;-68
2022/10/19 02:38:08;;;;;;;0.00;0.00;;;;;;;;;;5066365;28;20214;-68
2022/10/19 02:40:37;;;;;;;0.00;0.00;;;;;;;;;;5065756;28;20202;-68
2022/10/19 02:43:05;;;;;;;0.10;0.10;;;;;;;;;;5066781;28;20285;-68
2022/10/19 02:45:35;;;;;;;0.00;0.00;;;;;;;;;;5064570;28;20250;-67
2022/10/19 02:48:03;;;;;;;0.00;0.00;;;;;;;;;;5072153;28;20218;-67
2022/10/19 02:50:31;;;;;;;0.00;0.00;;;;;;;;;;5066517;28;20418;-65
2022/10/19 02:52:59;;;;;;;0.00;0.00;;;;;;;;;;5098447;27;20213;-66
2022/10/19 02:55:28;;;;;;;0.00;0.00;;;;;;;;;;5066845;28;20195;-66
2022/10/19 02:57:56;;;;;;;0.00;0.00;;;;;;;;;;5066907;28;20267;-67
2022/10/19 03:00:24;;;;;;;0.00;0.00;;;;;;;;;;5082353;28;20203;-65
2022/10/19 03:02:51;;;;;;;0.00;0.00;;;;;;;;;;5069116;28;20202;-66
2022/10/19 03:05:19;;;;;;;0.00;0.00;;;;;;;;;;5071426;28;20627;-66
2022/10/19 03:07:46;;;;;;;0.00;0.00;;;;;;;;;;5065652;28;20305;-66
2022/10/19 03:10:14;;;;;;;0.00;0.00;;;;;;;;;;5069160;28;20217;-64
2022/10/19 03:12:43;;;;;;;0.10;0.10;;;;;;;;;;5100248;27;20284;-64
2022/10/19 03:15:11;;;;;;;0.10;0.10;;;;;;;;;;5068998;28;20199;-63
2022/10/19 03:17:38;;;;;;;0.00;0.00;;;;;;;;;;5065391;28;20222;-65
2022/10/19 03:20:07;;;;;;;0.00;0.00;;;;;;;;;;5066620;28;20284;-64
2022/10/19 03:22:34;;;;;;;0.00;0.00;;;;;;;;;;5068054;28;20202;-64
2022/10/19 03:25:02;;;;;;;0.10;0.10;;;;;;;;;;5063240;28;20206;-65
2022/10/19 03:27:29;;;;;;;0.00;0.00;;;;;;;;;;5067716;28;20226;-65
2022/10/19 03:29:58;;;;;;;0.00;0.00;;;;;;;;;;5069046;28;20217;-63
2022/10/19 03:32:26;;;;;;;0.00;0.00;;;;;;;;;;5064163;28;20206;-65
2022/10/19 03:34:53;;;;;;;0.10;0.10;;;;;;;;;;5067846;28;20194;-65
2022/10/19 03:37:21;;;;;;;0.00;0.00;;;;;;;;;;5067167;28;20194;-65
2022/10/19 03:39:48;;;;;;;0.00;0.00;;;;;;;;;;5065588;28;20221;-65
2022/10/19 03:42:16;;;;;;;0.00;0.00;;;;;;;;;;5067602;28;20202;-65
2022/10/19 03:44:43;;;;;;;0.00;0.00;;;;;;;;;;5067702;28;20217;-66
2022/10/19 03:47:12;;;;;;;0.10;0.10;;;;;;;;;;5067857;28;20222;-66
2022/10/19 03:49:42;;;;;;;0.00;0.00;;;;;;;;;;5064342;28;20263;-66
2022/10/19 03:52:09;;;;;;;0.00;0.00;;;;;;;;;;5050346;28;20202;-65
2022/10/19 03:54:37;;;;;;;0.00;0.00;;;;;;;;;;5065468;28;20210;-66
2022/10/19 03:57:05;;;;;;;0.00;0.00;;;;;;;;;;5066686;28;20202;-66
2022/10/19 03:59:32;;;;;;;0.00;0.00;;;;;;;;;;5080236;28;20219;-66
2022/10/19 04:02:00;;;;;;;0.00;0.00;;;;;;;;;;5066288;28;20671;-66
2022/10/19 04:04:28;;;;;;;0.00;0.00;;;;;;;;;;5101942;27;20194;-65
2022/10/19 04:06:56;;;;;;;0.00;0.00;;;;;;;;;;5069609;28;20247;-63
2022/10/19 04:09:23;;;;;;;0.00;0.00;;;;;;;;;;5064698;28;20226;-65
2022/10/19 04:12:13;;;;;;;0.00;0.00;;;;;;;;;;5068006;28;20212;-65
2022/10/19 04:14:41;;;;;;;0.00;0.00;;;;;;;;;;5067542;28;20207;-67
2022/10/19 04:17:08;;;;;;;0.00;0.00;;;;;;;;;;5065508;28;20248;-67
2022/10/19 04:19:37;;;;;;;0.00;0.00;;;;;;;;;;5064632;28;20229;-68
2022/10/19 04:22:05;;;;;;;0.10;0.10;;;;;;;;;;5051955;28;20207;-68
2022/10/19 04:24:32;;;;;;;0.00;0.00;;;;;;;;;;5067995;28;20190;-68
2022/10/19 04:26:59;;;;;;;0.10;0.10;;;;;;;;;;5067180;28;20214;-68
2022/10/19 04:29:27;;;;;;;0.10;0.10;;;;;;;;;;5065442;28;20217;-68
2022/10/19 04:32:16;;;;;;;0.00;0.00;;;;;;;;;;5068549;28;20247;-69
2022/10/19 04:34:45;;;;;;;0.10;0.10;;;;;;;;;;5065402;28;20729;-68
2022/10/19 04:37:13;;;;;;;0.10;0.10;;;;;;;;;;5066864;28;20194;-68
2022/10/19 04:39:42;;;;;;;0.10;0.10;;;;;;;;;;5069370;28;20240;-67
2022/10/19 04:42:09;;;;;;;0.00;0.00;;;;;;;;;;5069825;28;20194;-68
2022/10/19 04:44:36;;;;;;;0.00;0.00;;;;;;;;;;5068911;28;20202;-67
2022/10/19 04:47:04;;;;;;;0.10;0.10;;;;;;;;;;5069701;28;20225;-68
2022/10/19 04:49:31;;;;;;;0.07;0.07;;;;;;;;;;5068370;28;20241;-69
2022/10/19 04:52:00;;;;;;;0.00;0.00;;;;;;;;;;5069846;28;20198;-68
2022/10/19 04:54:28;;;;;;;0.00;0.00;;;;;;;;;;5067757;28;20197;-69
2022/10/19 04:56:55;;;;;;;0.10;0.10;;;;;;;;;;5067369;28;20201;-68
2022/10/19 04:59:22;;;;;;;0.00;0.00;;;;;;;;;;5073993;28;20313;-68
2022/10/19 05:01:50;;;;;;;0.00;0.00;;;;;;;;;;5071489;28;20756;-68
2022/10/19 05:04:17;;;;;;;0.00;0.00;;;;;;;;;;5067997;28;20209;-68
2022/10/19 05:06:44;;;;;;;0.10;0.10;;;;;;;;;;5069381;28;20226;-69
2022/10/19 05:09:13;;;;;;;0.00;0.00;;;;;;;;;;5069292;28;20729;-69
2022/10/19 05:11:42;;;;;;;0.00;0.00;;;;;;;;;;5067282;28;20301;-68
2022/10/19 05:14:09;;;;;;;0.00;0.00;;;;;;;;;;5069315;28;20195;-68
2022/10/19 05:16:37;;;;;;;0.00;0.00;;;;;;;;;;5099320;27;20203;-68
2022/10/19 05:19:04;;;;;;;0.00;0.00;;;;;;;;;;5070595;28;20214;-68
2022/10/19 05:21:31;;;;;;;0.10;0.10;;;;;;;;;;5069042;28;20199;-69
2022/10/19 05:23:59;;;;;;;0.00;0.00;;;;;;;;;;5052517;28;20211;-68
2022/10/19 05:26:29;;;;;;;0.00;0.00;;;;;;;;;;5068881;28;20222;-69
2022/10/19 05:29:00;;;;;;;0.00;0.00;;;;;;;;;;5068925;28;20222;-69
2022/10/19 05:31:28;;;;;;;0.00;0.00;;;;;;;;;;5104797;27;20264;-70
2022/10/19 05:33:56;;;;;;;0.00;0.00;;;;;;;;;;5065272;28;20199;-68
2022/10/19 05:36:25;;;;;;;0.00;0.00;;;;;;;;;;5066844;28;20321;-68
2022/10/19 05:38:52;;;;;;;0.00;0.00;;;;;;;;;;5070238;28;20241;-69
2022/10/19 05:41:20;;;;;;;0.07;0.07;;;;;;;;;;5066536;28;20276;-68
2022/10/19 05:43:53;;;;;;;0.00;0.00;;;;;;;;;;5067838;28;20676;-68
2022/10/19 05:46:20;;;;;;;0.00;0.00;;;;;;;;;;5051766;28;20198;-68
2022/10/19 05:48:47;;;;;;;0.10;0.10;;;;;;;;;;5069432;28;20225;-68
2022/10/19 05:51:16;;;;;;;0.03;0.03;;;;;;;;;;5067485;28;20295;-68
2022/10/19 05:53:44;;;;;;;0.00;0.00;;;;;;;;;;5072519;28;20199;-69
2022/10/19 05:56:13;;;;;;;0.00;0.00;;;;;;;;;;5067882;28;20279;-69
2022/10/19 05:58:41;;;;;;;0.00;0.00;;;;;;;;;;5081820;28;20222;-69
2022/10/19 06:01:10;;;;;;;0.07;0.07;;;;;;;;;;5064981;28;20202;-68
2022/10/19 06:03:37;;;;;;;0.10;0.10;;;;;;;;;;5068643;28;20198;-69
2022/10/19 06:06:05;;;;;;;0.00;0.00;;;;;;;;;;5072671;28;20205;-69
2022/10/19 06:08:32;;;;;;;0.00;0.00;;;;;;;;;;5065869;28;20222;-69
2022/10/19 06:11:07;;;;;;;0.00;0.00;;;;;;;;;;5068864;28;20202;-69
2022/10/19 06:13:35;;;;;;;0.10;0.10;;;;;;;;;;5065934;28;20198;-69
2022/10/19 06:16:02;;;;;;;0.03;0.03;;;;;;;;;;5067882;28;20194;-70
2022/10/19 06:18:31;;;;;;;0.10;0.10;;;;;;;;;;5075598;28;20214;-67
2022/10/19 06:21:02;;;;;;;0.00;0.00;;;;;;;;;;5050487;28;20202;-68
2022/10/19 06:23:30;;;;;;;0.03;0.03;;;;;;;;;;5066508;28;20225;-69
2022/10/19 06:25:57;;;;;;;0.00;0.00;;;;;;;;;;5068144;28;20223;-68
2022/10/19 06:28:25;;;;;;;0.00;0.00;;;;;;;;;;5067815;28;20217;-69
2022/10/19 06:30:53;;;;;;;0.10;0.10;;;;;;;;;;5067060;28;20214;-68
2022/10/19 06:33:20;;;;;;;0.00;0.00;;;;;;;;;;5067383;28;20201;-69
2022/10/19 06:35:49;;;;;;;0.00;0.00;;;;;;;;;;5097663;27;20917;-69
2022/10/19 06:38:16;;;;;;;0.00;0.00;;;;;;;;;;5063849;28;20608;-69
2022/10/19 06:40:44;;;;;;;0.00;0.00;;;;;;;;;;5098964;27;20217;-69
2022/10/19 06:43:11;;;;;;;0.00;0.00;;;;;;;;;;5069566;28;20201;-69
2022/10/19 06:45:39;;;;;;;0.10;0.10;;;;;;;;;;5065626;28;20202;-69
2022/10/19 06:48:07;;;;;;;0.00;0.00;;;;;;;;;;5065726;28;20232;-69
2022/10/19 06:50:35;;;;;;;0.07;0.07;;;;;;;;;;5066896;28;20213;-68
2022/10/19 06:53:03;;;;;;;0.00;0.00;;;;;;;;;;5068365;28;20209;-68
2022/10/19 06:55:31;;;;;;;0.00;0.00;;;;;;;;;;5068385;28;20222;-68
2022/10/19 06:58:00;;;;;;;0.00;0.00;;;;;;;;;;5064562;28;20558;-68
2022/10/19 07:00:28;;;;;;;0.10;0.10;;;;;;;;;;5067809;28;20660;-71
2022/10/19 07:02:55;;;;;;;0.00;0.00;;;;;;;;;;5069107;28;20263;-69
2022/10/19 07:05:23;;;;;;;0.00;0.00;;;;;;;;;;5065819;28;20217;-69
2022/10/19 07:07:50;;;;;;;0.00;0.00;;;;;;;;;;5062387;28;20227;-69
2022/10/19 07:10:19;;;;;;;0.00;0.00;;;;;;;;;;5068083;28;20283;-68
2022/10/19 07:12:46;;;;;;;0.10;0.10;;;;;;;;;;5064055;28;20202;-68
2022/10/19 07:15:14;;;;;;;0.10;0.10;;;;;;;;;;5069484;28;20198;-69
2022/10/19 07:17:41;;;;;;;0.00;0.00;;;;;;;;;;5066707;28;20187;-70
2022/10/19 07:20:09;;;;;;;0.00;0.00;;;;;;;;;;5066737;28;20248;-69
2022/10/19 07:22:36;;;;;;;0.00;0.00;;;;;;;;;;5067988;28;20212;-69
2022/10/19 07:25:04;;;;;;;0.00;0.00;;;;;;;;;;5065314;28;20213;-69
2022/10/19 07:27:35;;;;;;;0.00;0.00;;;;;;;;;;5067026;28;20224;-70
2022/10/19 07:30:02;;;;;;;0.10;0.10;;;;;;;;;;5065148;28;20259;-69
2022/10/19 07:32:30;;;;;;;0.00;0.00;;;;;;;;;;5062748;28;20207;-69
2022/10/19 07:34:57;;;;;;;0.00;0.00;;;;;;;;;;5066650;28;20206;-68
2022/10/19 07:37:25;;;;;;;0.00;0.00;;;;;;;;;;5067187;28;20201;-68
2022/10/19 07:39:52;;;;;;;0.10;0.10;;;;;;;;;;5065411;28;20209;-69
2022/10/19 07:42:19;;;;;;;0.10;0.10;;;;;;;;;;5072932;28;20209;-69
2022/10/19 07:44:48;;;;;;;0.10;0.10;;;;;;;;;;5066095;28;20211;-70
2022/10/19 07:47:16;;;;;;;0.03;0.03;;;;;;;;;;5063029;28;20216;-69
2022/10/19 07:49:44;;;;;;;0.00;0.00;;;;;;;;;;5064303;28;20251;-69
2022/10/19 07:52:11;;;;;;;0.10;0.10;;;;;;;;;;5054996;28;20219;-69
2022/10/19 07:54:38;;;;;;;0.03;0.03;;;;;;;;;;5062148;28;20703;-69
2022/10/19 07:57:06;;;;;;;0.03;0.03;;;;;;;;;;5067474;28;20191;-69
2022/10/19 07:59:34;;;;;;;0.03;0.03;;;;;;;;;;5063046;28;20225;-68
2022/10/19 08:02:03;;;;;;;0.10;0.10;;;;;;;;;;5069906;28;20202;-70
2022/10/19 08:04:31;;;;;;;0.00;0.00;;;;;;;;;;5067457;28;20226;-68
2022/10/19 08:06:58;;;;;;;0.10;0.10;;;;;;;;;;5068396;28;20190;-68
2022/10/19 08:09:26;;;;;;;0.00;0.00;;;;;;;;;;5066287;28;20224;-69
2022/10/19 08:11:53;;;;;;;0.00;0.00;;;;;;;;;;5064932;28;20206;-69
2022/10/19 08:14:20;;;;;;;0.00;0.00;;;;;;;;;;5062862;28;20197;-69
2022/10/19 08:16:48;;;;;;;0.07;0.07;;;;;;;;;;5065780;28;20260;-70
2022/10/19 08:19:17;;;;;;;0.00;0.00;;;;;;;;;;5071906;28;20241;-70
2022/10/19 08:21:45;;;;;;;0.00;0.00;;;;;;;;;;5070158;28;20213;-68
2022/10/19 08:24:13;;;;;;;0.00;0.00;;;;;;;;;;5073096;28;20668;-71
2022/10/19 08:26:41;;;;;;;0.00;0.00;;;;;;;;;;5074606;28;20197;-69
2022/10/19 08:29:11;;;;;;;0.00;0.00;;;;;;;;;;5070106;28;20229;-70
2022/10/19 08:31:38;;;;;;;0.00;0.00;;;;;;;;;;5072911;28;20201;-69
2022/10/19 08:34:06;;;;;;;0.00;0.00;;;;;;;;;;5069516;28;20197;-70
2022/10/19 08:36:35;;;;;;;0.10;0.10;;;;;;;;;;5075017;28;20279;-70
2022/10/19 08:39:03;;;;;;;0.00;0.00;;;;;;;;;;5071510;28;20220;-69
2022/10/19 08:41:33;;;;;;;0.00;0.00;;;;;;;;;;5073625;28;20193;-70
2022/10/19 08:44:12;;;;;;;0.00;0.00;;;;;;;;;;5072020;28;20205;-70
2022/10/19 08:46:43;;;;;;;0.10;0.10;;;;;;;;;;5071138;28;20244;-71
2022/10/19 08:49:13;;;;;;;0.00;0.00;;;;;;;;;;5074550;28;20233;-69
2022/10/19 08:51:43;;;;;;;0.00;0.00;;;;;;;;;;5071798;28;20647;-69
2022/10/19 08:54:16;;;;;;;0.00;0.00;;;;;;;;;;5068577;28;20218;-69
2022/10/19 08:56:48;;;;;;;0.00;0.00;;;;;;;;;;5075288;28;20208;-70
2022/10/19 08:59:22;;;;;;;0.00;0.00;;;;;;;;;;5072908;28;20297;-70
2022/10/19 09:01:52;;;;;;;0.00;0.00;;;;;;;;;;5088353;28;20562;-70
2022/10/19 09:04:22;;;;;;;0.00;0.00;;;;;;;;;;5077204;28;20209;-70
2022/10/19 09:06:56;;;;;;;0.00;0.00;;;;;;;;;;5072011;28;20322;-70
2022/10/19 09:09:24;;;;;;;0.00;0.00;;;;;;;;;;5089232;28;20225;-71
2022/10/19 09:11:56;;;;;;;0.00;0.00;;;;;;;;;;5070595;28;20244;-70
2022/10/19 09:14:27;;;;;;;0.00;0.00;;;;;;;;;;5073657;28;20285;-71
2022/10/19 09:16:55;;;;;;;0.00;0.00;;;;;;;;;;5072027;28;20197;-70
2022/10/19 09:19:24;;;;;;;0.00;0.00;;;;;;;;;;5070732;28;20207;-69
2022/10/19 09:21:56;;;;;;;0.00;0.00;;;;;;;;;;5070439;28;20207;-71
2022/10/19 09:24:28;;;;;;;0.10;0.10;;;;;;;;;;5070943;28;20199;-71
2022/10/19 09:26:57;;;;;;;0.00;0.00;;;;;;;;;;5104257;27;20210;-70
2022/10/19 09:29:27;;;;;;;0.00;0.00;;;;;;;;;;5072765;28;20241;-71
2022/10/19 09:31:56;;;;;;;0.00;0.00;;;;;;;;;;5069966;28;20213;-70
2022/10/19 09:34:25;;;;;;;0.00;0.00;;;;;;;;;;5069044;28;20313;-70
2022/10/19 09:36:56;;;;;;;0.00;0.00;;;;;;;;;;5071252;28;20198;-70
2022/10/19 09:39:24;;;;;;;0.00;0.00;;;;;;;;;;5067720;28;20302;-69
2022/10/19 09:41:53;;;;;;;0.00;0.00;;;;;;;;;;5065048;28;20211;-69
2022/10/19 09:44:20;;;;;;;0.00;0.00;;;;;;;;;;5067920;28;20206;-69
2022/10/19 09:46:51;;;;;;;0.03;0.03;;;;;;;;;;5064984;28;20286;-69
2022/10/19 09:49:19;;;;;;;0.00;0.00;;;;;;;;;;5068283;28;20230;-69
2022/10/19 09:51:50;;;;;;;0.10;0.10;;;;;;;;;;5070282;28;20237;-70
2022/10/19 09:54:26;;;;;;;0.00;0.00;;;;;;;;;;5075662;28;20203;-70
2022/10/19 09:56:54;;;;;;;0.00;0.00;;;;;;;;;;5073569;28;20206;-69
2022/10/19 09:59:22;;;;;;;0.00;0.00;;;;;;;;;;5069575;28;20301;-69
2022/10/19 10:02:00;;;;;;;0.00;0.00;;;;;;;;;;5066131;28;20209;-69
2022/10/19 10:04:29;;;;;;;0.00;0.00;;;;;;;;;;5069510;28;20197;-70
2022/10/19 10:06:57;;;;;;;0.00;0.00;;;;;;;;;;5070475;28;20205;-71
2022/10/19 10:09:27;;;;;;;0.00;0.00;;;;;;;;;;5068358;28;20695;-69
2022/10/19 10:11:55;;;;;;;0.00;0.00;;;;;;;;;;5069804;28;20194;-69
2022/10/19 10:14:24;;;;;;;0.00;0.00;;;;;;;;;;5055453;28;20268;-69
2022/10/19 10:16:55;;;;;;;0.00;0.00;;;;;;;;;;5066272;28;20293;-69
2022/10/19 10:19:27;;;;;;;0.00;0.00;;;;;;;;;;5070305;28;20303;-69
2022/10/19 10:21:55;;;;;;;0.00;0.00;;;;;;;;;;5069165;28;20197;-69
2022/10/19 10:24:23;;;;;;;0.00;0.00;;;;;;;;;;5068184;28;20205;-69
2022/10/19 10:26:53;;;;;;;0.00;0.00;;;;;;;;;;5072091;28;20194;-69
2022/10/19 10:29:21;;;;;;;0.10;0.10;;;;;;;;;;5067522;28;20222;-68
2022/10/19 10:31:49;;;;;;;0.00;0.00;;;;;;;;;;5066930;28;20198;-69
2022/10/19 10:34:19;;;;;;;0.00;0.00;;;;;;;;;;5065690;28;20208;-71
2022/10/19 10:36:49;;;;;;;0.00;0.00;;;;;;;;;;5066010;28;20195;-69
2022/10/19 10:39:19;;;;;;;0.00;0.00;;;;;;;;;;5066066;28;20318;-69
2022/10/19 10:41:48;;;;;;;0.00;0.00;;;;;;;;;;5065291;28;20194;-69
2022/10/19 10:44:19;;;;;;;0.00;0.00;;;;;;;;;;5068229;28;20283;-70
2022/10/19 10:46:51;;;;;;;0.00;0.00;;;;;;;;;;5085209;28;20205;-70
2022/10/19 10:49:22;;;;;;;0.00;0.00;;;;;;;;;;5066973;28;20238;-71
2022/10/19 10:51:51;;;;;;;0.00;0.00;;;;;;;;;;5068346;28;20222;-70
2022/10/19 10:54:20;;;;;;;0.00;0.00;;;;;;;;;;5068514;28;20209;-70
2022/10/19 10:56:58;;;;;;;0.00;0.00;;;;;;;;;;5065002;28;20232;-70
2022/10/19 10:59:29;;;;;;;0.00;0.00;;;;;;;;;;5066585;28;20221;-69
2022/10/19 11:02:00;;;;;;;0.00;0.00;;;;;;;;;;5069934;28;20206;-69
2022/10/19 11:04:30;;;;;;;0.00;0.00;;;;;;;;;;5067462;28;20243;-73
2022/10/19 11:07:01;;;;;;;0.00;0.00;;;;;;;;;;5066900;28;20206;-69
2022/10/19 11:09:31;;;;;;;0.00;0.00;;;;;;;;;;5068802;28;20233;-70
2022/10/19 11:12:01;;;;;;;0.00;0.00;;;;;;;;;;5066282;28;20202;-68
2022/10/19 11:14:34;;;;;;;0.00;0.00;;;;;;;;;;5084896;28;20195;-69
2022/10/19 11:17:05;;;;;;;0.00;0.00;;;;;;;;;;5070151;28;20207;-68
2022/10/19 11:19:35;;;;;;;0.00;0.00;;;;;;;;;;5065171;28;20210;-68
2022/10/19 11:22:07;;;;;;;0.00;0.00;;;;;;;;;;5068536;28;20186;-69
2022/10/19 11:24:40;;;;;;;0.00;0.00;;;;;;;;;;5067125;28;20213;-69
2022/10/19 11:27:15;;;;;;;0.00;0.00;;;;;;;;;;5066726;28;20199;-68
2022/10/19 11:30:03;;;;;;;0.00;0.00;;;;;;;;;;5069051;28;20248;-69
2022/10/19 11:32:36;;;;;;;0.00;0.00;;;;;;;;;;5101493;27;20206;-68
2022/10/19 11:35:17;;;;;;;0.00;0.00;;;;;;;;;;5070530;28;20863;-68
2022/10/19 11:37:48;;;;;;;0.00;0.00;;;;;;;;;;5068291;28;20233;-65
2022/10/19 11:40:20;;;;;;;0.00;0.00;;;;;;;;;;5065285;28;20202;-65
2022/10/19 11:42:50;;;;;;;0.00;0.00;;;;;;;;;;5068905;28;20210;-66
2022/10/19 11:45:27;;;;;;;0.00;0.00;;;;;;;;;;5065775;28;20198;-64
2022/10/19 11:48:03;;;;;;;0.00;0.00;;;;;;;;;;5063382;28;20229;-68
2022/10/19 11:50:36;;;;;;;0.00;0.00;;;;;;;;;;5097667;27;20189;-68
2022/10/19 11:53:10;;;;;;;0.00;0.00;;;;;;;;;;5064471;28;20222;-66
2022/10/19 11:55:40;;;;;;;0.00;0.00;;;;;;;;;;5066895;28;20205;-65
2022/10/19 11:58:13;;;;;;;0.00;0.00;;;;;;;;;;5067721;28;20296;-64
2022/10/19 12:00:47;;;;;;;0.00;0.00;;;;;;;;;;5072911;28;20198;-66
2022/10/19 12:03:38;;;;;;;0.00;0.00;;;;;;;;;;5065912;28;20292;-67
2022/10/19 12:06:10;;;;;;;0.00;0.00;;;;;;;;;;5058677;28;20205;-67
2022/10/19 12:08:45;;;;;;;0.00;0.00;;;;;;;;;;5066615;28;20295;-67
2022/10/19 12:11:23;;;;;;;0.00;0.00;;;;;;;;;;5067355;28;20205;-67
2022/10/19 12:13:52;;;;;;;0.00;0.00;;;;;;;;;;5064922;28;20318;-67
2022/10/19 12:16:22;;;;;;;0.00;0.00;;;;;;;;;;5066549;28;20195;-66
2022/10/19 12:18:50;;;;;;;0.00;0.00;;;;;;;;;;5064455;28;20268;-66
2022/10/19 12:21:22;;;;;;;0.00;0.00;;;;;;;;;;5063864;28;20207;-66
2022/10/19 12:23:50;;;;;;;0.00;0.00;;;;;;;;;;5065944;28;20213;-67
2022/10/19 12:26:19;;;;;;;0.00;0.00;;;;;;;;;;5068300;28;20195;-67
2022/10/19 12:28:48;;;;;;;0.00;0.00;;;;;;;;;;5064644;28;20254;-66
2022/10/19 12:31:15;;;;;;;0.00;0.00;;;;;;;;;;5062709;28;20228;-67
2022/10/19 12:33:47;;;;;;;0.00;0.00;;;;;;;;;;5065151;28;20194;-65
2022/10/19 12:36:23;;;;;;;0.00;0.00;;;;;;;;;;5069044;28;20207;-65
2022/10/19 12:38:53;;;;;;;0.00;0.00;;;;;;;;;;5060569;28;20243;-67
2022/10/19 12:41:26;;;;;;;0.00;0.00;;;;;;;;;;5062657;28;20202;-67
2022/10/19 12:44:05;;;;;;;0.00;0.00;;;;;;;;;;5096564;28;20224;-67
2022/10/19 12:46:36;;;;;;;0.00;0.00;;;;;;;;;;5060215;28;20261;-67
2022/10/19 12:49:22;;;;;;;0.00;0.00;;;;;;;;;;5068296;28;20248;-67
2022/10/19 12:51:52;;;;;;;0.00;0.00;;;;;;;;;;5063359;28;20299;-67
2022/10/19 12:54:22;;;;;;;0.00;0.00;;;;;;;;;;5067487;28;20205;-67
2022/10/19 12:56:52;;;;;;;0.00;0.00;;;;;;;;;;5069212;28;20213;-67
2022/10/19 12:59:23;;;;;;;0.00;0.00;;;;;;;;;;5064169;28;20221;-67
2022/10/19 13:01:51;;;;;;;0.00;0.00;;;;;;;;;;5064714;28;20206;-68
2022/10/19 13:04:19;;;;;;;0.00;0.00;;;;;;;;;;5065139;28;20198;-67
2022/10/19 13:06:48;;;;;;;0.00;0.00;;;;;;;;;;5101902;27;20206;-67
2022/10/19 13:09:24;;;;;;;0.00;0.00;;;;;;;;;;5067351;28;20227;-66
2022/10/19 13:12:16;;;;;;;0.00;0.00;;;;;;;;;;5101829;27;20229;-67
2022/10/19 13:14:45;;;;;;;0.00;0.00;;;;;;;;;;5054136;28;20294;-68
2022/10/19 13:17:32;;;;;;;0.00;0.00;;;;;;;;;;5069056;28;20203;-66
2022/10/19 13:20:15;;;;;;;0.00;0.00;;;;;;;;;;5069132;28;20201;-67
2022/10/19 13:22:43;;;;;;;0.00;0.00;;;;;;;;;;5066113;28;20234;-65
2022/10/19 13:25:26;;;;;;;0.00;0.00;;;;;;;;;;5066078;28;20306;-66
2022/10/19 13:27:55;;;;;;;0.00;0.00;;;;;;;;;;5073540;28;20227;-66
2022/10/19 13:30:41;;;;;;;0.00;0.00;;;;;;;;;;5068957;28;20256;-65
2022/10/19 13:33:24;;;;;;;0.00;0.00;;;;;;;;;;5081412;28;20202;-67
2022/10/19 13:36:06;;;;;;;0.00;0.00;;;;;;;;;;5067033;28;20360;-67
2022/10/19 13:38:34;;;;;;;0.00;0.00;;;;;;;;;;5067951;28;20320;-66
2022/10/19 13:41:24;;;;;;;0.00;0.00;;;;;;;;;;5068500;28;20198;-67
2022/10/19 13:43:56;;;;;;;0.00;0.00;;;;;;;;;;5067212;28;20218;-67
2022/10/19 13:46:27;;;;;;;0.00;0.00;;;;;;;;;;5082148;28;20232;-67
2022/10/19 13:49:12;;;;;;;0.00;0.00;;;;;;;;;;5066787;28;20219;-66
2022/10/19 13:51:44;;;;;;;0.00;0.00;;;;;;;;;;5073856;28;20221;-66
2022/10/19 13:54:20;;;;;;;0.00;0.00;;;;;;;;;;5068870;28;20258;-67
2022/10/19 13:56:56;;;;;;;0.00;0.00;;;;;;;;;;5071492;28;20203;-67
2022/10/19 13:59:42;;;;;;;0.00;0.00;;;;;;;;;;5098978;27;20263;-66
2022/10/19 14:02:44;;;;;;;0.00;0.00;;;;;;;;;;5066922;28;20289;-67
2022/10/19 14:05:22;;;;;;;0.00;0.00;;;;;;;;;;5017029;28;20207;-67
2022/10/19 14:07:55;;;;;;;0.00;0.00;;;;;;;;;;5013747;28;20242;-67
2022/10/19 14:10:23;;;;;;;0.00;0.00;;;;;;;;;;5049612;28;20275;-66
2022/10/19 14:12:51;;;;;;;0.00;0.00;;;;;;;;;;5071262;28;20206;-66
2022/10/19 14:15:26;;;;;;;0.00;0.00;;;;;;;;;;5068553;28;20226;-65
2022/10/19 14:17:54;;;;;;;0.00;0.00;;;;;;;;;;5068407;28;20302;-67
2022/10/19 14:20:27;;;;;;;0.00;0.00;;;;;;;;;;5074730;28;20260;-66
2022/10/19 14:22:54;;;;;;;0.00;0.00;;;;;;;;;;5099924;27;20199;-66
2022/10/19 14:25:23;;;;;;;0.00;0.00;;;;;;;;;;5066164;28;20289;-67
2022/10/19 14:27:54;;;;;;;0.00;0.00;;;;;;;;;;5067896;28;20217;-67
2022/10/19 14:30:24;;;;;;;0.00;0.00;;;;;;;;;;5066644;28;20253;-66
2022/10/19 14:32:52;;;;;;;0.03;0.03;;;;;;;;;;5083134;28;20202;-67
2022/10/19 14:35:21;;;;;;;0.00;0.00;;;;;;;;;;5068888;28;20199;-66
2022/10/19 14:37:48;;;;;;;0.00;0.00;;;;;;;;;;5067817;28;20214;-67
2022/10/19 14:40:27;;;;;;;0.00;0.00;;;;;;;;;;5067982;28;20202;-66
2022/10/19 14:42:55;;;;;;;0.00;0.00;;;;;;;;;;5067216;28;20194;-67
2022/10/19 14:45:25;;;;;;;0.00;0.00;;;;;;;;;;5065899;28;20190;-67
2022/10/19 14:47:57;;;;;;;0.00;0.00;;;;;;;;;;5099576;27;20218;-67
2022/10/19 14:50:27;;;;;;;0.00;0.00;;;;;;;;;;5067243;28;20218;-67
2022/10/19 14:52:57;;;;;;;0.00;0.00;;;;;;;;;;5069436;28;20190;-67
2022/10/19 14:55:24;;;;;;;0.00;0.00;;;;;;;;;;5064577;28;20198;-66
2022/10/19 14:57:53;;;;;;;0.00;0.00;;;;;;;;;;5078138;28;20313;-67
2022/10/19 15:00:21;;;;;;;0.00;0.00;;;;;;;;;;5063987;28;20206;-67